LIEELIPZ

Guest
Details From LIEE - Cagliari Elmas
To LIPZ - Venezia Tessera
Flight Number -
Tags decoded
Created
Modified
Stats Distance 414 nm / 766 km
Max Altitude 0 ft / 0 m
Waypoints 19
Social Downloads 6
Likes 0
Share VATSIM

Download

Looking for another format? Having issues loading an existing format? Contact us
Advertisement - Login to hide

Notes

Requested: LIEE CAG KOVAS BAREN KOLUS SME TALIN PITOR BEKOS GILET ELB MAREL GINAR FRZ ARGEX ROVIG LAREN LARTI LIPZ

Route

LIEE CAG KOVAS BAREN KOLUS SME TALIN PITOR BEKOS GILET ELB MAREL GINAR FRZ ARGEX ROVIG LAREN LARTI LIPZ

ID Type Via Altitude Latitude Longitude Leg Dist Tot Dist Heading (true) Name
O LIEE APT - 0 ft / 0 m 39.25147˚ 9.05429˚ - 0 nm - Cagliari Elmas
CAG NDB - 0 ft / 0 m 39.21465˚ 9.09747˚ 2 nm 2 nm 138° / 138° CAGLIARI NDB
KOVAS FIX - 0 ft / 0 m 39.64556˚ 9.07056˚ 25 nm 28 nm 357° / 357° -
BAREN FIX - 0 ft / 0 m 40.41472˚ 9.33500˚ 47 nm 76 nm 15° / 15° -
KOLUS FIX - 0 ft / 0 m 40.71806˚ 9.44111˚ 18 nm 95 nm 15° / 15° -
SME NDB - 0 ft / 0 m 40.89358˚ 9.50231˚ 10 nm 106 nm 15° / 15° SMERALDA NDB
TALIN FIX - 0 ft / 0 m 41.03833˚ 9.57167˚ 9 nm 115 nm 20° / 20° -
PITOR FIX - 0 ft / 0 m 41.21972˚ 9.65694˚ 11 nm 127 nm 19° / 20° -
BEKOS FIX - 0 ft / 0 m 41.79306˚ 9.93389˚ 36 nm 163 nm 20° / 20° -
GILET FIX - 0 ft / 0 m 42.37528˚ 10.21917˚ 37 nm 201 nm 20° / 20° -
ELB NDB - 0 ft / 0 m 42.73250˚ 10.39389˚ 22 nm 223 nm 20° / 20° ELBA NDB
MAREL FIX - 0 ft / 0 m 43.28194˚ 10.65139˚ 34 nm 258 nm 19° / 19° -
GINAR FIX - 0 ft / 0 m 43.63250˚ 10.81611˚ 22 nm 280 nm 19° / 19° -
FRZ VOR - 0 ft / 0 m 44.02718˚ 11.00331˚ 25 nm 306 nm 19° / 19° FIRENZE VORTAC
ARGEX FIX - 0 ft / 0 m 44.55250˚ 11.66972˚ 42 nm 348 nm 42° / 42° -
ROVIG FIX - 0 ft / 0 m 44.92389˚ 11.89750˚ 24 nm 372 nm 23° / 24° -
LAREN FIX - 0 ft / 0 m 45.27806˚ 12.06167˚ 22 nm 395 nm 18° / 18° -
LARTI FIX - 0 ft / 0 m 45.43028˚ 12.25917˚ 12 nm 407 nm 42° / 42° -
O LIPZ APT - 0 ft / 0 m 45.50479˚ 12.34969˚ 5 nm 413 nm 40° / 40° Venezia Tessera

Altitude Profile

Advertisement - Login to hide

Weather


0- 5 10 15 20 25 30 35+ Temperature / ° C

Clouds and Precipitation
Forecast for 2017-12-13 06:00 UTC. Updated 17 minutes ago

Ground ~20,000 ft ~40,000 ft Winds

LIEE

Details ICAO LIEE (CAG)
Name Cagliari Elmas
Region Italy
Timezone Europe/Rome (UTC+1.0)
Stats Elevation 13 ft / 4 m (AMSL)
Location 39.251475° 9.054291°
Runways 1
Magnetic Variation 2.297° E

METAR

LIEE 130520Z 33003KT 9999 -RA SCT040 12/10 Q1020

Decode

TAF

TAF LIEE 122300Z 1300/1324 33012KT 9999 SCT040 TEMPO 1300/1303 RA= TAF LIEO 122300Z 1300/1324 VRB06KT 9999 SCT040 BECMG 1303/1306 26015KT BECMG 1310/1312 28015G25KT

Decode

Departure Runways

ID Width Length Bearing (true) Bearing (mag) Surface Threshold Offset Overrun Length
14 148 ft / 45 m 9,157 ft / 2,791 m 138.08° 135.78° Asphalt 0 ft / 0 m 187 ft / 57 m
32 148 ft / 45 m 9,157 ft / 2,791 m 318.09° 315.79° Asphalt 0 ft / 0 m 0 ft / 0 m

LIPZ

Details ICAO LIPZ (VCE)
Name Venezia Tessera
Region Italy
Timezone Europe/Rome (UTC+1.0)
Stats Elevation 7 ft / 2 m (AMSL)
Location 45.504791° 12.349691°
Runways 2
Magnetic Variation 3.179° E

METAR

LIPZ 130520Z 26004KT 210V310 1800 BR NSC 04/04 Q1015 NOSIG

Decode

TAF

TAF LIPZ 122300Z 1300/1406 VRB05KT 3000 BR SCT015 TEMPO 1300/1308 0400 FG BKN003 BECMG 1306/1309 03012KT 8000 BECMG 1316/1319 VRB05KT 3000 BR TEMPO 1400/1406 0400 FG BKN004

Decode

Destination Runways

ID Width Length Bearing (true) Bearing (mag) Surface Threshold Offset Overrun Length
04L 148 ft / 45 m 9,112 ft / 2,777 m 42.01° 38.83° Asphalt 312 ft / 95 m 0 ft / 0 m
04R 148 ft / 45 m 10,834 ft / 3,302 m 41.99° 38.81° Asphalt 0 ft / 0 m 0 ft / 0 m
22L 148 ft / 45 m 10,834 ft / 3,302 m 222.01° 218.83° Asphalt 0 ft / 0 m 0 ft / 0 m
22R 148 ft / 45 m 9,112 ft / 2,777 m 222.02° 218.84° Asphalt 0 ft / 0 m 0 ft / 0 m

Approach Navaids

Runway Type Ident Frequency Range Bearing (true) Bearing (mag) Slope Elevation
04R Localiser VTS 109.95 MHz 18 nm / 33 km 42.02° 38.84° - 13 ft / 4 m (AMSL)
04R Glidescope VTS 109.95 MHz 10 nm / 19 km 42.00° 38.82° 3.00° 52 ft / 16 m (AMSL)
04R DME VTS 109.95 MHz 18 nm / 33 km - - - 26 ft / 8 m (AMSL)

Popular Alternatives